createdAt,value
2023-02-11T00:01:20.607Z,19.38
2023-02-11T00:03:48.887Z,22.02
2023-02-11T00:06:18.929Z,21.00
2023-02-11T00:08:47.594Z,22.23
2023-02-11T00:11:17.020Z,20.92
2023-02-11T00:13:46.364Z,20.10
2023-02-11T00:16:16.437Z,20.80
2023-02-11T00:18:44.964Z,21.23
2023-02-11T00:21:15.564Z,26.30
2023-02-11T00:23:46.246Z,22.67
2023-02-11T00:26:15.147Z,24.67
2023-02-11T00:28:45.073Z,22.15
2023-02-11T00:31:13.602Z,21.00
2023-02-11T00:33:41.867Z,20.77
2023-02-11T00:36:12.967Z,22.38
2023-02-11T00:38:41.228Z,21.98
2023-02-11T00:41:10.894Z,19.10
2023-02-11T00:43:39.241Z,34.50
2023-02-11T00:46:07.884Z,28.75
2023-02-11T00:48:36.389Z,22.10
2023-02-11T00:51:05.456Z,21.27
2023-02-11T00:53:34.137Z,22.05
2023-02-11T00:56:02.599Z,19.48
2023-02-11T00:58:32.492Z,20.92
2023-02-11T01:01:00.741Z,22.77
2023-02-11T01:03:29.267Z,22.90
2023-02-11T01:05:57.611Z,21.65
2023-02-11T01:08:26.033Z,24.45
2023-02-11T01:10:58.847Z,21.58
2023-02-11T01:13:27.841Z,20.48
2023-02-11T01:15:58.127Z,21.90
2023-02-11T01:18:26.930Z,21.10
2023-02-11T01:20:55.650Z,23.20
2023-02-11T01:23:24.889Z,22.35
2023-02-11T01:25:54.401Z,21.63
2023-02-11T01:28:24.402Z,22.85
2023-02-11T01:30:54.275Z,20.38
2023-02-11T01:33:24.873Z,21.88
2023-02-11T01:35:53.589Z,21.07
2023-02-11T01:38:26.518Z,19.75
2023-02-11T01:40:57.018Z,21.30
2023-02-11T01:43:27.299Z,20.55
2023-02-11T01:46:21.240Z,20.67
2023-02-11T01:48:54.177Z,22.40
2023-02-11T01:51:25.515Z,21.83
2023-02-11T01:54:13.022Z,20.88
2023-02-11T01:57:02.482Z,20.52
2023-02-11T01:59:34.393Z,20.35
2023-02-11T02:02:07.801Z,21.27
2023-02-11T02:04:45.598Z,22.60
2023-02-11T02:07:20.894Z,21.38
2023-02-11T02:09:53.738Z,20.70
2023-02-11T02:12:21.944Z,20.67
2023-02-11T02:14:50.370Z,20.15
2023-02-11T02:17:30.140Z,19.23
2023-02-11T02:20:40.861Z,18.88
2023-02-11T02:23:25.743Z,19.17
2023-02-11T02:26:16.207Z,19.88
2023-02-11T02:29:15.734Z,19.73
2023-02-11T02:32:03.559Z,19.10
2023-02-11T02:34:43.203Z,18.80
2023-02-11T02:37:18.478Z,18.30
2023-02-11T02:39:49.592Z,21.83
2023-02-11T02:42:19.451Z,21.23
2023-02-11T02:44:50.384Z,18.83
2023-02-11T02:47:18.675Z,21.23
2023-02-11T02:49:48.271Z,22.58
2023-02-11T02:52:23.857Z,18.52
2023-02-11T02:55:21.027Z,18.55
2023-02-11T02:58:06.743Z,19.63
2023-02-11T03:00:44.252Z,18.15
2023-02-11T03:03:23.200Z,21.77
2023-02-11T03:05:58.033Z,21.95
2023-02-11T03:08:31.677Z,19.17
2023-02-11T03:11:02.228Z,21.02
2023-02-11T03:13:33.785Z,19.00
2023-02-11T03:16:07.191Z,19.02
2023-02-11T03:18:37.951Z,20.00
2023-02-11T03:21:10.112Z,20.58
2023-02-11T03:23:41.504Z,17.20
2023-02-11T03:26:16.255Z,18.17
2023-02-11T03:28:50.950Z,16.20
2023-02-11T03:31:26.804Z,17.77
2023-02-11T03:34:02.355Z,15.43
2023-02-11T03:36:37.594Z,13.63
2023-02-11T03:39:07.003Z,13.68
2023-02-11T03:41:36.870Z,15.75
2023-02-11T03:44:07.298Z,14.30
2023-02-11T03:46:39.972Z,14.55
2023-02-11T03:49:14.460Z,15.77
2023-02-11T03:51:45.220Z,14.85
2023-02-11T03:54:17.640Z,12.98
2023-02-11T03:56:52.064Z,15.00
2023-02-11T03:59:20.687Z,14.70
2023-02-11T04:01:49.022Z,14.57
2023-02-11T04:04:17.716Z,12.32
2023-02-11T04:06:47.665Z,15.32
2023-02-11T04:09:16.120Z,14.20
2023-02-11T04:11:44.420Z,13.57
2023-02-11T04:14:12.647Z,14.73
2023-02-11T04:16:40.923Z,13.43
2023-02-11T04:19:09.214Z,13.70
2023-02-11T04:21:37.430Z,13.63
2023-02-11T04:24:07.453Z,14.15
2023-02-11T04:26:35.689Z,13.32
2023-02-11T04:29:03.909Z,11.32
2023-02-11T04:31:32.734Z,12.32
2023-02-11T04:34:00.992Z,12.52
2023-02-11T04:36:29.196Z,12.80
2023-02-11T04:38:57.445Z,12.05
2023-02-11T04:41:27.098Z,11.70
2023-02-11T04:43:55.371Z,13.95
2023-02-11T04:46:23.699Z,12.68
2023-02-11T04:48:52.021Z,16.17
2023-02-11T04:51:20.242Z,15.13
2023-02-11T04:53:48.521Z,12.43
2023-02-11T04:56:16.742Z,13.23
2023-02-11T04:58:46.566Z,12.25
2023-02-11T05:01:16.378Z,13.40
2023-02-11T05:03:44.874Z,13.52
2023-02-11T05:06:13.374Z,12.98
2023-02-11T05:08:41.581Z,12.15
2023-02-11T05:11:09.889Z,12.02
2023-02-11T05:13:38.191Z,16.83
2023-02-11T05:16:08.238Z,14.82
2023-02-11T05:18:39.326Z,13.70
2023-02-11T05:21:08.513Z,12.45
2023-02-11T05:23:37.085Z,13.55
2023-02-11T05:26:06.081Z,13.25
2023-02-11T05:28:35.300Z,15.20
2023-02-11T05:31:04.076Z,13.02
2023-02-11T05:33:34.070Z,13.20
2023-02-11T05:36:03.830Z,14.15
2023-02-11T05:38:32.099Z,12.35
2023-02-11T05:41:00.537Z,13.07
2023-02-11T05:43:28.929Z,12.32
2023-02-11T05:45:57.242Z,12.35
2023-02-11T05:48:25.509Z,12.30
2023-02-11T05:50:55.132Z,14.05
2023-02-11T05:53:23.481Z,13.95
2023-02-11T05:55:51.890Z,13.57
2023-02-11T05:58:20.417Z,13.30
2023-02-11T06:00:48.826Z,12.90
2023-02-11T06:03:17.092Z,10.82
2023-02-11T06:05:46.002Z,12.00
2023-02-11T06:08:55.568Z,13.45
2023-02-11T06:11:29.664Z,12.98
2023-02-11T06:14:20.089Z,12.27
2023-02-11T06:16:57.812Z,12.55
2023-02-11T06:20:04.760Z,11.63
2023-02-11T06:22:56.742Z,9.43
2023-02-11T06:25:43.552Z,11.60
2023-02-11T06:28:12.407Z,11.95
2023-02-11T06:30:48.312Z,11.30
2023-02-11T06:33:36.544Z,13.85
2023-02-11T06:36:22.653Z,11.87
2023-02-11T06:39:06.969Z,9.98
2023-02-11T06:42:11.158Z,11.18
2023-02-11T06:45:12.226Z,9.95
2023-02-11T06:47:49.817Z,12.63
2023-02-11T06:50:39.838Z,10.57
2023-02-11T06:53:43.299Z,10.07
2023-02-11T06:56:22.186Z,11.20
2023-02-11T06:59:00.220Z,12.32
2023-02-11T07:01:34.092Z,9.60
2023-02-11T07:07:02.517Z,11.85
2023-02-11T07:09:48.797Z,9.45
2023-02-11T07:12:17.470Z,9.20
2023-02-11T07:15:10.624Z,9.88
2023-02-11T07:20:34.264Z,12.50
2023-02-11T07:23:31.335Z,10.43
2023-02-11T07:26:54.000Z,11.85
2023-02-11T07:29:28.639Z,12.90
2023-02-11T07:32:21.491Z,11.98
2023-02-11T07:34:59.503Z,8.77
2023-02-11T07:37:51.570Z,11.30
2023-02-11T07:40:26.902Z,12.93
2023-02-11T07:43:34.611Z,10.57
2023-02-11T07:46:47.341Z,11.48
2023-02-11T07:49:56.772Z,13.48
2023-02-11T07:52:32.086Z,10.57
2023-02-11T07:55:23.228Z,13.60
2023-02-11T07:58:02.410Z,12.75
2023-02-11T08:00:56.921Z,9.20
2023-02-11T08:06:34.771Z,11.70
2023-02-11T08:09:15.140Z,10.35
2023-02-11T08:11:54.681Z,11.57
2023-02-11T08:14:42.263Z,10.50
2023-02-11T08:17:26.477Z,9.80
2023-02-11T08:20:10.613Z,12.48
2023-02-11T08:23:09.653Z,15.68
2023-02-11T08:25:53.472Z,14.55
2023-02-11T08:28:38.181Z,14.85
2023-02-11T08:31:20.679Z,10.68
2023-02-11T08:34:24.993Z,12.43
2023-02-11T08:40:16.329Z,12.70
2023-02-11T08:43:17.150Z,11.93
2023-02-11T08:45:49.518Z,12.55
2023-02-11T08:48:40.221Z,12.07
2023-02-11T08:51:24.945Z,13.60
2023-02-11T08:54:23.478Z,14.25
2023-02-11T08:57:34.999Z,13.93
2023-02-11T09:00:26.090Z,15.57
2023-02-11T09:03:48.597Z,13.25
2023-02-11T09:06:29.297Z,16.02
2023-02-11T09:09:05.576Z,13.05
2023-02-11T09:11:57.275Z,14.70
2023-02-11T09:15:05.671Z,11.93
2023-02-11T09:18:04.521Z,11.90
2023-02-11T09:21:26.587Z,13.93
2023-02-11T09:27:11.069Z,12.68
2023-02-11T09:33:46.360Z,12.65
2023-02-11T09:36:41.572Z,11.75
2023-02-11T09:39:32.413Z,14.05
2023-02-11T09:42:53.642Z,11.67
2023-02-11T09:45:28.189Z,11.55
2023-02-11T09:48:05.074Z,13.73
2023-02-11T09:50:43.580Z,13.35
2023-02-11T09:53:42.483Z,11.63
2023-02-11T09:56:29.204Z,11.63
2023-02-11T09:59:43.261Z,13.80
2023-02-11T10:02:52.702Z,11.35
2023-02-11T10:05:53.646Z,14.38
2023-02-11T10:08:43.284Z,14.60
2023-02-11T10:12:00.437Z,12.32
2023-02-11T10:15:34.587Z,11.90
2023-02-11T10:19:04.346Z,11.57
2023-02-11T10:22:39.204Z,12.38
2023-02-11T10:25:53.526Z,17.08
2023-02-11T10:28:52.345Z,17.30
2023-02-11T10:31:42.487Z,15.95
2023-02-11T10:34:17.240Z,14.85
2023-02-11T10:37:09.244Z,13.90
2023-02-11T10:40:03.019Z,14.35
2023-02-11T10:42:58.063Z,18.92
2023-02-11T10:45:44.853Z,16.23
2023-02-11T10:48:58.653Z,16.27
2023-02-11T10:52:06.620Z,13.75
2023-02-11T10:55:39.457Z,15.60
2023-02-11T10:58:29.440Z,15.63
2023-02-11T11:14:31.121Z,21.13
2023-02-11T11:17:40.297Z,18.15
2023-02-11T11:22:06.292Z,16.25
2023-02-11T11:25:29.890Z,19.70
2023-02-11T11:32:44.161Z,17.92
2023-02-11T11:35:46.635Z,16.95
2023-02-11T11:38:30.065Z,17.92
2023-02-11T11:41:37.787Z,15.75
2023-02-11T11:44:51.199Z,17.05
2023-02-11T11:47:57.117Z,16.40
2023-02-11T11:53:58.779Z,15.98
2023-02-11T11:56:33.562Z,18.70
2023-02-11T11:59:07.435Z,15.75
2023-02-11T12:01:49.598Z,15.38
2023-02-11T12:04:52.030Z,16.67
2023-02-11T12:08:04.510Z,19.52
2023-02-11T12:11:28.246Z,16.20
2023-02-11T12:14:25.752Z,16.70
2023-02-11T12:18:05.737Z,18.00
2023-02-11T12:21:26.291Z,16.98
2023-02-11T12:24:45.045Z,13.93
2023-02-11T12:28:06.303Z,16.00
2023-02-11T12:31:15.082Z,14.73
2023-02-11T12:34:19.099Z,15.65
2023-02-11T12:37:36.416Z,14.45
2023-02-11T12:40:33.259Z,15.95
2023-02-11T12:43:32.925Z,17.25
2023-02-11T12:46:55.167Z,16.40
2023-02-11T12:49:52.503Z,19.25
2023-02-11T12:53:00.653Z,16.00
2023-02-11T12:55:49.490Z,17.45
2023-02-11T12:58:35.531Z,15.77
2023-02-11T13:01:26.501Z,16.25
2023-02-11T13:07:54.452Z,13.95
2023-02-11T13:10:52.567Z,18.35
2023-02-11T13:13:28.093Z,14.63
2023-02-11T13:16:11.457Z,14.75
2023-02-11T13:19:01.221Z,14.23
2023-02-11T13:22:10.486Z,15.85
2023-02-11T13:25:24.401Z,15.10
2023-02-11T13:28:42.975Z,14.38
2023-02-11T13:31:34.478Z,17.17
2023-02-11T13:34:46.811Z,14.20
2023-02-11T13:37:40.529Z,12.90
2023-02-11T13:40:38.122Z,13.82
2023-02-11T13:43:40.793Z,16.02
2023-02-11T13:48:55.290Z,14.27
2023-02-11T13:51:37.399Z,14.65
2023-02-11T13:54:09.085Z,14.85
2023-02-11T13:59:48.442Z,14.07
2023-02-11T14:02:44.400Z,13.25
2023-02-11T14:05:42.454Z,14.57
2023-02-11T14:08:39.405Z,13.48
2023-02-11T14:11:23.882Z,15.85
2023-02-11T14:14:23.937Z,15.52
2023-02-11T14:17:24.872Z,12.25
2023-02-11T14:19:53.461Z,19.13
2023-02-11T14:22:26.035Z,13.88
2023-02-11T14:24:57.724Z,14.57
2023-02-11T14:27:32.962Z,13.40
2023-02-11T14:30:25.452Z,12.52
2023-02-11T14:33:13.431Z,14.30
2023-02-11T14:35:51.332Z,15.82
2023-02-11T14:38:29.652Z,14.57
2023-02-11T14:41:03.153Z,13.80
2023-02-11T14:43:36.415Z,12.38
2023-02-11T14:46:06.585Z,14.80
2023-02-11T14:48:37.289Z,16.33
2023-02-11T14:51:10.521Z,22.70
2023-02-11T14:53:42.112Z,18.27
2023-02-11T14:58:49.105Z,15.50
2023-02-11T15:01:31.681Z,14.32
2023-02-11T15:04:01.298Z,17.40
2023-02-11T15:06:32.844Z,16.20
2023-02-11T15:09:05.015Z,16.10
2023-02-11T15:11:39.377Z,16.38
2023-02-11T15:14:10.748Z,16.55
2023-02-11T15:16:44.795Z,17.67
2023-02-11T15:19:26.743Z,17.98
2023-02-11T15:21:56.753Z,25.30
2023-02-11T15:24:28.087Z,20.73
2023-02-11T15:27:01.114Z,21.40
2023-02-11T15:29:37.412Z,17.23
2023-02-11T15:32:16.837Z,19.30
2023-02-11T15:34:46.178Z,19.88
2023-02-11T15:37:17.776Z,22.00
2023-02-11T15:39:46.067Z,21.38
2023-02-11T15:42:18.587Z,20.98
2023-02-11T15:44:50.630Z,23.40
2023-02-11T15:47:25.956Z,21.27
2023-02-11T15:49:54.252Z,21.13
2023-02-11T15:52:29.048Z,24.00
2023-02-11T15:55:01.736Z,24.27
2023-02-11T15:57:30.577Z,23.30
2023-02-11T16:00:04.373Z,21.38
2023-02-11T16:02:45.210Z,19.40
2023-02-11T16:05:28.253Z,21.90
2023-02-11T16:07:56.926Z,23.02
2023-02-11T16:10:28.027Z,23.50
2023-02-11T16:13:18.516Z,21.75
2023-02-11T16:15:56.501Z,20.80
2023-02-11T16:18:38.288Z,20.70
2023-02-11T16:21:13.410Z,21.67
2023-02-11T16:23:43.249Z,21.52
2023-02-11T16:26:21.848Z,22.63
2023-02-11T16:28:50.417Z,23.00
2023-02-11T16:31:19.073Z,21.10
2023-02-11T16:33:48.842Z,30.02
2023-02-11T16:36:18.266Z,74.70
2023-02-11T16:38:46.503Z,187.48
2023-02-11T16:41:14.907Z,286.92
2023-02-11T16:43:45.420Z,276.23
2023-02-11T16:46:16.444Z,228.40
2023-02-11T16:48:45.124Z,260.58
2023-02-11T16:51:14.783Z,240.25
2023-02-11T16:53:43.048Z,222.38
2023-02-11T16:56:16.732Z,181.07
2023-02-11T16:58:45.501Z,188.27
2023-02-11T17:01:14.548Z,253.07
2023-02-11T17:03:43.815Z,282.65
2023-02-11T17:06:14.620Z,268.63
2023-02-11T17:08:43.081Z,226.93
2023-02-11T17:11:11.527Z,217.23
2023-02-11T17:13:41.960Z,198.15
2023-02-11T17:16:17.091Z,189.68
2023-02-11T17:18:45.434Z,154.07
2023-02-11T17:21:15.070Z,197.57
2023-02-11T17:23:45.773Z,215.48
2023-02-11T17:26:14.006Z,251.43
2023-02-11T17:28:42.216Z,347.10
2023-02-11T17:31:11.189Z,258.25
2023-02-11T17:33:39.621Z,210.23
2023-02-11T17:36:09.754Z,172.38
2023-02-11T17:38:39.588Z,161.40
2023-02-11T17:41:07.891Z,144.25
2023-02-11T17:43:36.129Z,132.63
2023-02-11T17:46:07.897Z,122.50
2023-02-11T17:48:37.657Z,114.50
2023-02-11T17:51:06.160Z,99.55
2023-02-11T17:53:34.427Z,104.47
2023-02-11T17:56:06.375Z,93.35
2023-02-11T17:58:34.594Z,87.13
2023-02-11T18:01:02.856Z,79.60
2023-02-11T18:03:31.184Z,80.45
2023-02-11T18:06:01.471Z,73.57
2023-02-11T18:08:30.299Z,72.55
2023-02-11T18:10:58.597Z,66.38
2023-02-11T18:13:29.241Z,65.28
2023-02-11T18:16:03.038Z,54.57
2023-02-11T18:18:31.370Z,55.92
2023-02-11T18:21:00.542Z,56.92
2023-02-11T18:23:29.731Z,51.22
2023-02-11T18:25:58.053Z,47.70
2023-02-11T18:28:27.867Z,46.40
2023-02-11T18:30:59.289Z,37.33
2023-02-11T18:33:28.229Z,33.10
2023-02-11T18:35:57.031Z,33.03
2023-02-11T18:38:25.897Z,34.35
2023-02-11T18:40:54.159Z,29.85
2023-02-11T18:43:22.427Z,30.65
2023-02-11T18:45:52.618Z,30.75
2023-02-11T18:48:21.046Z,31.45
2023-02-11T18:50:49.354Z,31.30
2023-02-11T18:53:17.651Z,33.03
2023-02-11T18:55:46.741Z,28.77
2023-02-11T18:58:15.681Z,26.45
2023-02-11T19:00:46.882Z,29.45
2023-02-11T19:03:16.482Z,30.02
2023-02-11T19:05:45.465Z,28.88
2023-02-11T19:08:14.267Z,31.00
2023-02-11T19:10:42.847Z,29.88
2023-02-11T19:13:12.619Z,29.90
2023-02-11T19:15:42.396Z,30.65
2023-02-11T19:18:10.756Z,40.47
2023-02-11T19:20:42.769Z,38.83
2023-02-11T19:23:11.809Z,34.63
2023-02-11T19:25:46.689Z,33.42
2023-02-11T19:28:15.499Z,39.63
2023-02-11T19:30:43.911Z,37.58
2023-02-11T19:33:12.272Z,33.10
2023-02-11T19:35:41.954Z,33.80
2023-02-11T19:38:10.141Z,32.35
2023-02-11T19:40:38.426Z,35.22
2023-02-11T19:43:06.654Z,37.90
2023-02-11T19:45:37.791Z,33.25
2023-02-11T19:48:06.412Z,35.03
2023-02-11T19:50:34.617Z,35.38
2023-02-11T19:53:04.205Z,38.00
2023-02-11T19:55:35.238Z,36.22
2023-02-11T19:58:03.538Z,34.70
2023-02-11T20:00:31.743Z,35.40
2023-02-11T20:03:00.123Z,37.47
2023-02-11T20:05:28.738Z,43.13
2023-02-11T20:07:57.048Z,152.90
2023-02-11T20:10:27.408Z,151.63
2023-02-11T20:12:55.917Z,206.63
2023-02-11T20:15:24.297Z,201.85
2023-02-11T20:17:52.552Z,191.68
2023-02-11T20:20:20.882Z,159.45
2023-02-11T20:22:49.150Z,141.95
2023-02-11T20:25:17.553Z,128.90
2023-02-11T20:27:47.337Z,154.82
2023-02-11T20:30:15.951Z,138.15
2023-02-11T20:32:44.289Z,218.38
2023-02-11T20:35:12.519Z,196.95
2023-02-11T20:37:43.781Z,217.85
2023-02-11T20:42:40.878Z,150.73
2023-02-11T20:45:11.858Z,107.32
2023-02-11T20:47:40.120Z,83.22
2023-02-11T20:50:09.229Z,105.47
2023-02-11T20:52:37.458Z,145.18
2023-02-11T20:55:06.576Z,177.95
2023-02-11T20:57:35.260Z,207.65
2023-02-11T21:00:04.283Z,202.02
2023-02-11T21:02:33.891Z,219.05
2023-02-11T21:05:02.120Z,180.15
2023-02-11T21:07:31.368Z,170.93
2023-02-11T21:09:59.558Z,146.48
2023-02-11T21:12:27.867Z,110.85
2023-02-11T21:14:57.904Z,89.50
2023-02-11T21:17:26.612Z,72.75
2023-02-11T21:19:56.339Z,61.97
2023-02-11T21:22:24.812Z,60.45
2023-02-11T21:24:53.091Z,57.85
2023-02-11T21:27:21.277Z,48.80
2023-02-11T21:29:54.520Z,53.67
2023-02-11T21:32:23.170Z,49.30
2023-02-11T21:34:51.474Z,53.45
2023-02-11T21:37:21.151Z,45.33
2023-02-11T21:39:49.359Z,42.83
2023-02-11T21:42:17.716Z,38.60
2023-02-11T21:44:45.945Z,38.45
2023-02-11T21:47:14.206Z,32.55
2023-02-11T21:49:42.541Z,37.38
2023-02-11T21:52:10.793Z,38.22
2023-02-11T21:54:40.356Z,33.60
2023-02-11T21:57:09.168Z,36.22
2023-02-11T21:59:37.558Z,35.15
2023-02-11T22:02:05.834Z,33.80
2023-02-11T22:04:34.551Z,37.08
2023-02-11T22:07:03.361Z,37.78
2023-02-11T22:09:31.619Z,40.90
2023-02-11T22:12:01.189Z,45.40
2023-02-11T22:14:32.195Z,39.42
2023-02-11T22:17:00.600Z,37.05
2023-02-11T22:19:28.864Z,35.20
2023-02-11T22:21:57.130Z,37.53
2023-02-11T22:24:25.427Z,36.38
2023-02-11T22:26:53.672Z,34.78
2023-02-11T22:29:23.468Z,36.88
2023-02-11T22:31:51.699Z,32.05
2023-02-11T22:34:19.974Z,29.65
2023-02-11T22:36:48.378Z,25.85
2023-02-11T22:39:17.980Z,29.92
2023-02-11T22:41:48.204Z,27.42
2023-02-11T22:44:17.472Z,29.27
2023-02-11T22:46:47.121Z,31.23
2023-02-11T22:49:16.629Z,33.53
2023-02-11T22:51:45.228Z,36.00
2023-02-11T22:54:15.048Z,31.00
2023-02-11T22:56:43.687Z,31.90
2023-02-11T22:59:15.917Z,37.15
2023-02-11T23:01:44.910Z,34.28
2023-02-11T23:04:15.992Z,35.35
2023-02-11T23:06:44.536Z,32.25
2023-02-11T23:09:13.497Z,33.80
2023-02-11T23:11:42.129Z,30.58
2023-02-11T23:14:12.193Z,35.65
2023-02-11T23:16:41.033Z,30.05
2023-02-11T23:19:12.356Z,30.75
2023-02-11T23:21:42.154Z,31.00
2023-02-11T23:24:13.990Z,26.63
2023-02-11T23:26:43.276Z,27.13
2023-02-11T23:29:12.320Z,36.08
2023-02-11T23:31:43.945Z,39.08
2023-02-11T23:34:15.005Z,28.73
2023-02-11T23:36:45.080Z,25.70
2023-02-11T23:39:15.945Z,26.40
2023-02-11T23:41:44.671Z,26.25
2023-02-11T23:44:13.361Z,27.77
2023-02-11T23:46:41.626Z,23.70
2023-02-11T23:49:09.896Z,26.02
2023-02-11T23:51:38.263Z,23.75
2023-02-11T23:54:07.894Z,27.05
2023-02-11T23:56:37.537Z,25.95
2023-02-11T23:59:06.384Z,27.40
